sensor_id;sensor_type;location;lat;lon;timestamp;P1;durP1;ratioP1;P2;durP2;ratioP2
46845;SDS011;33947;46.804;134.252;2022-12-04T00:01:47;99.20;;;40.83;;
46845;SDS011;33947;46.804;134.252;2022-12-04T00:04:52;125.82;;;51.25;;
46845;SDS011;33947;46.804;134.252;2022-12-04T00:07:56;144.38;;;55.80;;
46845;SDS011;33947;46.804;134.252;2022-12-04T00:11:04;132.82;;;50.45;;
46845;SDS011;33947;46.804;134.252;2022-12-04T00:14:11;207.98;;;70.15;;
46845;SDS011;33947;46.804;134.252;2022-12-04T00:17:15;79.97;;;25.08;;
46845;SDS011;33947;46.804;134.252;2022-12-04T00:20:20;91.03;;;38.57;;
46845;SDS011;33947;46.804;134.252;2022-12-04T00:23:25;31.92;;;14.00;;
46845;SDS011;33947;46.804;134.252;2022-12-04T00:26:31;48.55;;;20.85;;
46845;SDS011;33947;46.804;134.252;2022-12-04T00:29:35;20.08;;;10.05;;
46845;SDS011;33947;46.804;134.252;2022-12-04T00:32:40;28.50;;;11.02;;
46845;SDS011;33947;46.804;134.252;2022-12-04T00:35:44;27.47;;;8.77;;
46845;SDS011;33947;46.804;134.252;2022-12-04T00:38:49;29.65;;;12.27;;
46845;SDS011;33947;46.804;134.252;2022-12-04T00:41:54;35.85;;;11.48;;
46845;SDS011;33947;46.804;134.252;2022-12-04T00:44:58;24.33;;;11.43;;
46845;SDS011;33947;46.804;134.252;2022-12-04T00:48:03;19.35;;;8.60;;
46845;SDS011;33947;46.804;134.252;2022-12-04T00:51:09;101.68;;;22.80;;
46845;SDS011;33947;46.804;134.252;2022-12-04T00:54:18;11.63;;;5.68;;
46845;SDS011;33947;46.804;134.252;2022-12-04T00:57:23;29.98;;;9.65;;
46845;SDS011;33947;46.804;134.252;2022-12-04T01:00:27;9.70;;;3.30;;
46845;SDS011;33947;46.804;134.252;2022-12-04T01:03:32;11.23;;;6.10;;
46845;SDS011;33947;46.804;134.252;2022-12-04T01:06:37;9.98;;;4.53;;
46845;SDS011;33947;46.804;134.252;2022-12-04T01:09:41;24.92;;;8.75;;
46845;SDS011;33947;46.804;134.252;2022-12-04T01:12:49;18.17;;;8.20;;
46845;SDS011;33947;46.804;134.252;2022-12-04T01:15:54;24.83;;;3.55;;
46845;SDS011;33947;46.804;134.252;2022-12-04T01:18:59;8.70;;;4.18;;
46845;SDS011;33947;46.804;134.252;2022-12-04T01:22:04;13.00;;;4.78;;
46845;SDS011;33947;46.804;134.252;2022-12-04T01:25:09;16.50;;;4.10;;
46845;SDS011;33947;46.804;134.252;2022-12-04T01:28:14;11.38;;;3.83;;
46845;SDS011;33947;46.804;134.252;2022-12-04T01:31:19;18.47;;;6.67;;
46845;SDS011;33947;46.804;134.252;2022-12-04T01:34:24;20.02;;;4.10;;
46845;SDS011;33947;46.804;134.252;2022-12-04T01:37:31;18.63;;;7.88;;
46845;SDS011;33947;46.804;134.252;2022-12-04T01:40:36;218.75;;;72.45;;
46845;SDS011;33947;46.804;134.252;2022-12-04T01:47:19;98.47;;;34.58;;
46845;SDS011;33947;46.804;134.252;2022-12-04T01:50:27;48.05;;;22.33;;
46845;SDS011;33947;46.804;134.252;2022-12-04T01:56:42;11.65;;;4.97;;
46845;SDS011;33947;46.804;134.252;2022-12-04T02:03:15;18.30;;;7.05;;
46845;SDS011;33947;46.804;134.252;2022-12-04T02:06:20;16.75;;;7.63;;
46845;SDS011;33947;46.804;134.252;2022-12-04T02:09:24;17.27;;;8.10;;
46845;SDS011;33947;46.804;134.252;2022-12-04T02:13:13;14.35;;;5.88;;
46845;SDS011;33947;46.804;134.252;2022-12-04T02:24:06;15.35;;;5.35;;
46845;SDS011;33947;46.804;134.252;2022-12-04T02:27:01;15.95;;;5.32;;
46845;SDS011;33947;46.804;134.252;2022-12-04T02:30:12;17.17;;;7.65;;
46845;SDS011;33947;46.804;134.252;2022-12-04T02:33:19;63.83;;;15.63;;
46845;SDS011;33947;46.804;134.252;2022-12-04T02:36:30;19.55;;;5.93;;
46845;SDS011;33947;46.804;134.252;2022-12-04T02:39:40;24.70;;;9.50;;
46845;SDS011;33947;46.804;134.252;2022-12-04T02:46:27;3.50;;;2.95;;
46845;SDS011;33947;46.804;134.252;2022-12-04T02:49:59;2.13;;;1.88;;
46845;SDS011;33947;46.804;134.252;2022-12-04T02:53:11;10.80;;;4.20;;
46845;SDS011;33947;46.804;134.252;2022-12-04T02:56:24;9.45;;;4.22;;
46845;SDS011;33947;46.804;134.252;2022-12-04T02:59:38;8.18;;;3.97;;
46845;SDS011;33947;46.804;134.252;2022-12-04T03:06:10;19.45;;;7.35;;
46845;SDS011;33947;46.804;134.252;2022-12-04T03:09:18;34.50;;;9.77;;
46845;SDS011;33947;46.804;134.252;2022-12-04T03:12:29;57.58;;;27.08;;
46845;SDS011;33947;46.804;134.252;2022-12-04T03:15:53;31.65;;;12.50;;
46845;SDS011;33947;46.804;134.252;2022-12-04T03:22:12;19.05;;;8.93;;
46845;SDS011;33947;46.804;134.252;2022-12-04T03:25:22;24.15;;;13.90;;
46845;SDS011;33947;46.804;134.252;2022-12-04T03:35:24;10.63;;;5.20;;
46845;SDS011;33947;46.804;134.252;2022-12-04T03:42:12;11.05;;;6.15;;
46845;SDS011;33947;46.804;134.252;2022-12-04T03:52:03;13.68;;;5.57;;
46845;SDS011;33947;46.804;134.252;2022-12-04T03:55:26;7.38;;;4.03;;
46845;SDS011;33947;46.804;134.252;2022-12-04T03:58:35;14.88;;;6.45;;
46845;SDS011;33947;46.804;134.252;2022-12-04T04:01:45;30.35;;;10.60;;
46845;SDS011;33947;46.804;134.252;2022-12-04T04:04:53;13.07;;;4.75;;
46845;SDS011;33947;46.804;134.252;2022-12-04T04:08:01;6.93;;;4.40;;
46845;SDS011;33947;46.804;134.252;2022-12-04T04:11:27;19.02;;;10.60;;
46845;SDS011;33947;46.804;134.252;2022-12-04T04:14:52;14.15;;;6.93;;
46845;SDS011;33947;46.804;134.252;2022-12-04T04:18:21;149.75;;;38.13;;
46845;SDS011;33947;46.804;134.252;2022-12-04T04:21:46;12.23;;;5.88;;
46845;SDS011;33947;46.804;134.252;2022-12-04T04:25:15;21.83;;;6.80;;
46845;SDS011;33947;46.804;134.252;2022-12-04T04:32:01;11.00;;;6.15;;
46845;SDS011;33947;46.804;134.252;2022-12-04T04:35:16;13.02;;;8.23;;
46845;SDS011;33947;46.804;134.252;2022-12-04T04:45:05;14.25;;;5.32;;
46845;SDS011;33947;46.804;134.252;2022-12-04T04:48:30;24.13;;;8.57;;
46845;SDS011;33947;46.804;134.252;2022-12-04T04:51:37;7.28;;;3.45;;
46845;SDS011;33947;46.804;134.252;2022-12-04T04:54:42;28.55;;;8.68;;
46845;SDS011;33947;46.804;134.252;2022-12-04T04:57:49;22.20;;;10.27;;
46845;SDS011;33947;46.804;134.252;2022-12-04T05:00:55;12.93;;;5.63;;
46845;SDS011;33947;46.804;134.252;2022-12-04T05:04:10;13.45;;;4.68;;
46845;SDS011;33947;46.804;134.252;2022-12-04T05:07:15;14.73;;;10.07;;
46845;SDS011;33947;46.804;134.252;2022-12-04T05:10:19;17.08;;;7.30;;
46845;SDS011;33947;46.804;134.252;2022-12-04T05:13:24;19.10;;;7.75;;
46845;SDS011;33947;46.804;134.252;2022-12-04T05:16:29;20.10;;;7.57;;
46845;SDS011;33947;46.804;134.252;2022-12-04T05:19:34;26.65;;;7.85;;
46845;SDS011;33947;46.804;134.252;2022-12-04T05:22:59;46.30;;;13.98;;
46845;SDS011;33947;46.804;134.252;2022-12-04T05:26:03;9.00;;;5.57;;
46845;SDS011;33947;46.804;134.252;2022-12-04T05:29:08;15.75;;;5.97;;
46845;SDS011;33947;46.804;134.252;2022-12-04T05:32:13;31.13;;;12.07;;
46845;SDS011;33947;46.804;134.252;2022-12-04T05:35:17;4.53;;;3.10;;
46845;SDS011;33947;46.804;134.252;2022-12-04T05:38:22;14.97;;;6.70;;
46845;SDS011;33947;46.804;134.252;2022-12-04T05:41:26;6.70;;;4.07;;
46845;SDS011;33947;46.804;134.252;2022-12-04T05:44:31;15.33;;;5.33;;
46845;SDS011;33947;46.804;134.252;2022-12-04T05:47:39;64.55;;;16.45;;
46845;SDS011;33947;46.804;134.252;2022-12-04T05:50:47;17.03;;;6.57;;
46845;SDS011;33947;46.804;134.252;2022-12-04T05:53:51;9.77;;;4.75;;
46845;SDS011;33947;46.804;134.252;2022-12-04T05:56:56;14.13;;;4.80;;
46845;SDS011;33947;46.804;134.252;2022-12-04T06:00:00;7.03;;;4.03;;
46845;SDS011;33947;46.804;134.252;2022-12-04T06:03:12;20.00;;;5.82;;
46845;SDS011;33947;46.804;134.252;2022-12-04T06:06:20;6.10;;;2.67;;
46845;SDS011;33947;46.804;134.252;2022-12-04T06:09:27;11.20;;;4.13;;
46845;SDS011;33947;46.804;134.252;2022-12-04T06:12:31;10.37;;;4.70;;
46845;SDS011;33947;46.804;134.252;2022-12-04T06:15:39;11.63;;;4.70;;
46845;SDS011;33947;46.804;134.252;2022-12-04T06:18:43;25.63;;;8.73;;
46845;SDS011;33947;46.804;134.252;2022-12-04T06:21:49;7.77;;;4.23;;
46845;SDS011;33947;46.804;134.252;2022-12-04T06:24:55;9.50;;;2.72;;
46845;SDS011;33947;46.804;134.252;2022-12-04T06:28:00;29.60;;;8.77;;
46845;SDS011;33947;46.804;134.252;2022-12-04T06:31:08;17.60;;;7.45;;
46845;SDS011;33947;46.804;134.252;2022-12-04T06:34:14;34.47;;;11.73;;
46845;SDS011;33947;46.804;134.252;2022-12-04T06:37:20;3.85;;;3.08;;
46845;SDS011;33947;46.804;134.252;2022-12-04T06:40:25;12.40;;;4.97;;
46845;SDS011;33947;46.804;134.252;2022-12-04T06:43:30;10.97;;;4.83;;
46845;SDS011;33947;46.804;134.252;2022-12-04T06:46:34;10.05;;;4.15;;
46845;SDS011;33947;46.804;134.252;2022-12-04T06:49:49;8.45;;;4.38;;
46845;SDS011;33947;46.804;134.252;2022-12-04T06:52:54;10.70;;;5.47;;
46845;SDS011;33947;46.804;134.252;2022-12-04T06:56:00;19.03;;;8.07;;
46845;SDS011;33947;46.804;134.252;2022-12-04T06:59:07;14.13;;;6.25;;
46845;SDS011;33947;46.804;134.252;2022-12-04T07:02:12;19.55;;;5.85;;
46845;SDS011;33947;46.804;134.252;2022-12-04T07:05:17;44.30;;;11.02;;
46845;SDS011;33947;46.804;134.252;2022-12-04T07:08:22;20.77;;;7.50;;
46845;SDS011;33947;46.804;134.252;2022-12-04T07:11:27;10.95;;;6.47;;
46845;SDS011;33947;46.804;134.252;2022-12-04T07:14:32;18.17;;;6.38;;
46845;SDS011;33947;46.804;134.252;2022-12-04T07:17:37;19.33;;;7.80;;
46845;SDS011;33947;46.804;134.252;2022-12-04T07:20:41;10.30;;;3.73;;
46845;SDS011;33947;46.804;134.252;2022-12-04T07:23:49;11.55;;;5.30;;
46845;SDS011;33947;46.804;134.252;2022-12-04T07:26:55;32.25;;;13.00;;
46845;SDS011;33947;46.804;134.252;2022-12-04T07:29:59;19.92;;;11.30;;
46845;SDS011;33947;46.804;134.252;2022-12-04T07:33:04;24.75;;;7.93;;
46845;SDS011;33947;46.804;134.252;2022-12-04T07:36:10;24.75;;;9.57;;
46845;SDS011;33947;46.804;134.252;2022-12-04T07:39:16;11.00;;;5.55;;
46845;SDS011;33947;46.804;134.252;2022-12-04T07:42:21;10.77;;;5.83;;
46845;SDS011;33947;46.804;134.252;2022-12-04T07:45:26;21.55;;;9.23;;
46845;SDS011;33947;46.804;134.252;2022-12-04T07:48:30;27.77;;;12.32;;
46845;SDS011;33947;46.804;134.252;2022-12-04T07:51:35;29.60;;;12.75;;
46845;SDS011;33947;46.804;134.252;2022-12-04T07:54:39;34.25;;;13.35;;
46845;SDS011;33947;46.804;134.252;2022-12-04T07:57:44;30.83;;;13.10;;
46845;SDS011;33947;46.804;134.252;2022-12-04T08:00:48;48.15;;;15.63;;
46845;SDS011;33947;46.804;134.252;2022-12-04T08:03:54;40.30;;;16.20;;
46845;SDS011;33947;46.804;134.252;2022-12-04T08:07:00;36.30;;;14.80;;
46845;SDS011;33947;46.804;134.252;2022-12-04T08:10:04;38.37;;;16.47;;
46845;SDS011;33947;46.804;134.252;2022-12-04T08:13:09;36.25;;;15.25;;
46845;SDS011;33947;46.804;134.252;2022-12-04T08:16:13;35.85;;;15.43;;
46845;SDS011;33947;46.804;134.252;2022-12-04T08:19:19;32.47;;;13.93;;
46845;SDS011;33947;46.804;134.252;2022-12-04T08:22:24;37.55;;;13.85;;
46845;SDS011;33947;46.804;134.252;2022-12-04T08:25:28;29.50;;;12.50;;
46845;SDS011;33947;46.804;134.252;2022-12-04T08:28:33;28.90;;;11.95;;
46845;SDS011;33947;46.804;134.252;2022-12-04T08:31:38;34.80;;;15.23;;
46845;SDS011;33947;46.804;134.252;2022-12-04T08:34:43;36.05;;;16.05;;
46845;SDS011;33947;46.804;134.252;2022-12-04T08:37:53;31.90;;;15.43;;
46845;SDS011;33947;46.804;134.252;2022-12-04T08:40:59;66.40;;;24.48;;
46845;SDS011;33947;46.804;134.252;2022-12-04T08:44:07;67.28;;;25.55;;
46845;SDS011;33947;46.804;134.252;2022-12-04T08:47:12;44.50;;;16.42;;
46845;SDS011;33947;46.804;134.252;2022-12-04T08:50:17;35.08;;;13.77;;
46845;SDS011;33947;46.804;134.252;2022-12-04T08:53:22;49.85;;;19.65;;
46845;SDS011;33947;46.804;134.252;2022-12-04T08:59:32;246.90;;;69.07;;
46845;SDS011;33947;46.804;134.252;2022-12-04T09:02:36;249.98;;;87.50;;
46845;SDS011;33947;46.804;134.252;2022-12-04T09:05:41;229.02;;;83.68;;
46845;SDS011;33947;46.804;134.252;2022-12-04T09:08:50;131.82;;;45.28;;
46845;SDS011;33947;46.804;134.252;2022-12-04T09:11:56;108.82;;;40.05;;
46845;SDS011;33947;46.804;134.252;2022-12-04T09:15:01;253.32;;;96.18;;
46845;SDS011;33947;46.804;134.252;2022-12-04T09:18:06;74.68;;;32.42;;
46845;SDS011;33947;46.804;134.252;2022-12-04T09:21:12;79.18;;;33.95;;
46845;SDS011;33947;46.804;134.252;2022-12-04T09:24:18;145.43;;;46.38;;
46845;SDS011;33947;46.804;134.252;2022-12-04T09:27:23;71.97;;;29.08;;
46845;SDS011;33947;46.804;134.252;2022-12-04T09:30:28;82.95;;;37.92;;
46845;SDS011;33947;46.804;134.252;2022-12-04T09:33:33;116.10;;;37.90;;
46845;SDS011;33947;46.804;134.252;2022-12-04T09:36:37;62.42;;;26.70;;
46845;SDS011;33947;46.804;134.252;2022-12-04T09:39:42;83.13;;;33.27;;
46845;SDS011;33947;46.804;134.252;2022-12-04T09:46:21;208.98;;;71.22;;
46845;SDS011;33947;46.804;134.252;2022-12-04T09:56:11;188.52;;;63.28;;
46845;SDS011;33947;46.804;134.252;2022-12-04T09:59:23;140.70;;;50.85;;
46845;SDS011;33947;46.804;134.252;2022-12-04T10:05:41;139.77;;;52.58;;
46845;SDS011;33947;46.804;134.252;2022-12-04T10:09:00;164.82;;;63.88;;
46845;SDS011;33947;46.804;134.252;2022-12-04T10:18:56;99.53;;;40.42;;
46845;SDS011;33947;46.804;134.252;2022-12-04T10:26:01;171.85;;;63.47;;
46845;SDS011;33947;46.804;134.252;2022-12-04T10:29:11;317.60;;;117.47;;
46845;SDS011;33947;46.804;134.252;2022-12-04T10:32:23;262.13;;;100.80;;
46845;SDS011;33947;46.804;134.252;2022-12-04T10:35:31;241.55;;;80.60;;
46845;SDS011;33947;46.804;134.252;2022-12-04T10:45:52;237.57;;;83.53;;
46845;SDS011;33947;46.804;134.252;2022-12-04T10:49:01;417.30;;;125.15;;
46845;SDS011;33947;46.804;134.252;2022-12-04T10:52:14;297.55;;;96.53;;
46845;SDS011;33947;46.804;134.252;2022-12-04T10:55:30;288.90;;;91.28;;
46845;SDS011;33947;46.804;134.252;2022-12-04T10:58:36;206.50;;;74.63;;
46845;SDS011;33947;46.804;134.252;2022-12-04T11:01:40;314.00;;;94.88;;
46845;SDS011;33947;46.804;134.252;2022-12-04T11:08:02;186.27;;;60.67;;
46845;SDS011;33947;46.804;134.252;2022-12-04T11:11:09;310.02;;;85.70;;
46845;SDS011;33947;46.804;134.252;2022-12-04T11:14:17;110.93;;;44.70;;
46845;SDS011;33947;46.804;134.252;2022-12-04T11:17:26;117.90;;;40.72;;
46845;SDS011;33947;46.804;134.252;2022-12-04T11:20:31;154.68;;;48.92;;
46845;SDS011;33947;46.804;134.252;2022-12-04T11:23:45;115.82;;;41.17;;
46845;SDS011;33947;46.804;134.252;2022-12-04T11:26:51;145.63;;;53.83;;
46845;SDS011;33947;46.804;134.252;2022-12-04T11:29:59;213.32;;;69.07;;
46845;SDS011;33947;46.804;134.252;2022-12-04T11:33:06;212.25;;;62.38;;
46845;SDS011;33947;46.804;134.252;2022-12-04T11:36:22;142.48;;;50.50;;
46845;SDS011;33947;46.804;134.252;2022-12-04T11:39:35;199.70;;;64.35;;
46845;SDS011;33947;46.804;134.252;2022-12-04T11:42:42;144.18;;;46.00;;
46845;SDS011;33947;46.804;134.252;2022-12-04T11:46:00;145.15;;;45.15;;
46845;SDS011;33947;46.804;134.252;2022-12-04T11:49:18;158.10;;;49.55;;
46845;SDS011;33947;46.804;134.252;2022-12-04T11:55:54;53.78;;;23.42;;
46845;SDS011;33947;46.804;134.252;2022-12-04T11:59:11;66.65;;;29.95;;
46845;SDS011;33947;46.804;134.252;2022-12-04T12:05:59;71.20;;;26.52;;
46845;SDS011;33947;46.804;134.252;2022-12-04T12:18:59;51.05;;;15.40;;
46845;SDS011;33947;46.804;134.252;2022-12-04T12:26:08;22.00;;;11.15;;
46845;SDS011;33947;46.804;134.252;2022-12-04T12:29:13;42.70;;;18.95;;
46845;SDS011;33947;46.804;134.252;2022-12-04T12:39:30;204.10;;;67.43;;
46845;SDS011;33947;46.804;134.252;2022-12-04T12:42:44;99.47;;;42.50;;
46845;SDS011;33947;46.804;134.252;2022-12-04T12:46:10;147.20;;;49.38;;
46845;SDS011;33947;46.804;134.252;2022-12-04T12:55:59;38.10;;;19.42;;
46845;SDS011;33947;46.804;134.252;2022-12-04T12:59:09;56.03;;;25.02;;
46845;SDS011;33947;46.804;134.252;2022-12-04T13:02:31;39.38;;;15.52;;
46845;SDS011;33947;46.804;134.252;2022-12-04T13:05:45;302.17;;;107.68;;
46845;SDS011;33947;46.804;134.252;2022-12-04T13:12:10;194.43;;;60.97;;
46845;SDS011;33947;46.804;134.252;2022-12-04T13:15:18;145.55;;;49.00;;
46845;SDS011;33947;46.804;134.252;2022-12-04T13:18:28;107.18;;;40.85;;
46845;SDS011;33947;46.804;134.252;2022-12-04T13:21:41;119.28;;;46.45;;
46845;SDS011;33947;46.804;134.252;2022-12-04T13:38:57;155.45;;;45.50;;
46845;SDS011;33947;46.804;134.252;2022-12-04T13:42:05;135.32;;;43.45;;
46845;SDS011;33947;46.804;134.252;2022-12-04T13:45:26;129.38;;;51.72;;
46845;SDS011;33947;46.804;134.252;2022-12-04T13:48:36;127.80;;;42.58;;
46845;SDS011;33947;46.804;134.252;2022-12-04T13:51:44;98.45;;;34.83;;
46845;SDS011;33947;46.804;134.252;2022-12-04T13:54:59;100.88;;;33.33;;
46845;SDS011;33947;46.804;134.252;2022-12-04T14:01:24;77.75;;;32.25;;
46845;SDS011;33947;46.804;134.252;2022-12-04T14:04:55;135.25;;;45.05;;
46845;SDS011;33947;46.804;134.252;2022-12-04T14:11:29;99.50;;;36.08;;
46845;SDS011;33947;46.804;134.252;2022-12-04T14:14:52;56.08;;;21.27;;
46845;SDS011;33947;46.804;134.252;2022-12-04T14:21:14;181.30;;;58.88;;
46845;SDS011;33947;46.804;134.252;2022-12-04T14:24:35;71.03;;;25.48;;
46845;SDS011;33947;46.804;134.252;2022-12-04T14:30:56;117.57;;;35.75;;
46845;SDS011;33947;46.804;134.252;2022-12-04T14:34:25;61.63;;;27.58;;
46845;SDS011;33947;46.804;134.252;2022-12-04T14:37:38;133.90;;;44.08;;
46845;SDS011;33947;46.804;134.252;2022-12-04T14:40:48;81.97;;;31.13;;
46845;SDS011;33947;46.804;134.252;2022-12-04T14:43:55;86.32;;;35.90;;
46845;SDS011;33947;46.804;134.252;2022-12-04T14:47:17;81.85;;;28.38;;
46845;SDS011;33947;46.804;134.252;2022-12-04T14:57:32;174.77;;;48.83;;
46845;SDS011;33947;46.804;134.252;2022-12-04T15:00:57;92.97;;;27.42;;
46845;SDS011;33947;46.804;134.252;2022-12-04T15:04:22;85.57;;;31.30;;
46845;SDS011;33947;46.804;134.252;2022-12-04T15:07:43;71.35;;;22.52;;
46845;SDS011;33947;46.804;134.252;2022-12-04T15:10:56;109.63;;;40.30;;
46845;SDS011;33947;46.804;134.252;2022-12-04T15:14:19;81.55;;;25.45;;
46845;SDS011;33947;46.804;134.252;2022-12-04T15:17:24;36.65;;;15.55;;
46845;SDS011;33947;46.804;134.252;2022-12-04T15:20:32;25.10;;;12.27;;
46845;SDS011;33947;46.804;134.252;2022-12-04T15:23:45;59.58;;;27.13;;
46845;SDS011;33947;46.804;134.252;2022-12-04T15:26:52;90.35;;;34.70;;
46845;SDS011;33947;46.804;134.252;2022-12-04T15:29:57;68.40;;;26.80;;
46845;SDS011;33947;46.804;134.252;2022-12-04T15:33:05;56.75;;;20.52;;
46845;SDS011;33947;46.804;134.252;2022-12-04T15:39:52;47.75;;;18.52;;
46845;SDS011;33947;46.804;134.252;2022-12-04T15:43:05;65.15;;;21.02;;
46845;SDS011;33947;46.804;134.252;2022-12-04T15:46:23;61.38;;;23.70;;
46845;SDS011;33947;46.804;134.252;2022-12-04T15:49:33;26.50;;;14.95;;
46845;SDS011;33947;46.804;134.252;2022-12-04T15:52:46;37.17;;;17.05;;
46845;SDS011;33947;46.804;134.252;2022-12-04T15:55:52;49.83;;;15.27;;
46845;SDS011;33947;46.804;134.252;2022-12-04T15:58:59;22.77;;;8.77;;
46845;SDS011;33947;46.804;134.252;2022-12-04T16:05:33;33.33;;;8.65;;
46845;SDS011;33947;46.804;134.252;2022-12-04T16:08:40;20.25;;;9.10;;
46845;SDS011;33947;46.804;134.252;2022-12-04T16:11:57;20.80;;;6.10;;
46845;SDS011;33947;46.804;134.252;2022-12-04T16:15:19;40.50;;;16.08;;
46845;SDS011;33947;46.804;134.252;2022-12-04T16:18:25;30.40;;;13.95;;
46845;SDS011;33947;46.804;134.252;2022-12-04T16:21:31;33.90;;;14.32;;
46845;SDS011;33947;46.804;134.252;2022-12-04T16:24:35;36.53;;;17.05;;
46845;SDS011;33947;46.804;134.252;2022-12-04T16:27:40;60.92;;;21.95;;
46845;SDS011;33947;46.804;134.252;2022-12-04T16:30:44;41.30;;;15.18;;
46845;SDS011;33947;46.804;134.252;2022-12-04T16:33:49;46.85;;;20.70;;
46845;SDS011;33947;46.804;134.252;2022-12-04T16:36:54;32.65;;;12.43;;
46845;SDS011;33947;46.804;134.252;2022-12-04T16:40:00;48.85;;;18.02;;
46845;SDS011;33947;46.804;134.252;2022-12-04T16:43:10;28.23;;;14.35;;
46845;SDS011;33947;46.804;134.252;2022-12-04T16:46:17;61.17;;;19.13;;
46845;SDS011;33947;46.804;134.252;2022-12-04T16:49:23;42.63;;;12.25;;
46845;SDS011;33947;46.804;134.252;2022-12-04T16:52:27;19.73;;;9.05;;
46845;SDS011;33947;46.804;134.252;2022-12-04T16:55:35;42.58;;;16.77;;
46845;SDS011;33947;46.804;134.252;2022-12-04T16:58:42;58.83;;;23.85;;
46845;SDS011;33947;46.804;134.252;2022-12-04T17:01:47;65.68;;;25.88;;
46845;SDS011;33947;46.804;134.252;2022-12-04T17:04:52;56.22;;;21.30;;
46845;SDS011;33947;46.804;134.252;2022-12-04T17:07:59;42.75;;;17.23;;
46845;SDS011;33947;46.804;134.252;2022-12-04T17:11:05;34.38;;;15.18;;
46845;SDS011;33947;46.804;134.252;2022-12-04T17:14:13;41.63;;;16.63;;
46845;SDS011;33947;46.804;134.252;2022-12-04T17:17:17;29.55;;;13.20;;
46845;SDS011;33947;46.804;134.252;2022-12-04T17:20:22;44.25;;;16.65;;
46845;SDS011;33947;46.804;134.252;2022-12-04T17:23:27;24.02;;;9.15;;
46845;SDS011;33947;46.804;134.252;2022-12-04T17:26:31;26.23;;;9.73;;
46845;SDS011;33947;46.804;134.252;2022-12-04T17:29:35;20.52;;;10.23;;
46845;SDS011;33947;46.804;134.252;2022-12-04T17:32:40;19.55;;;9.45;;
46845;SDS011;33947;46.804;134.252;2022-12-04T17:38:51;8.90;;;5.03;;
46845;SDS011;33947;46.804;134.252;2022-12-04T17:42:00;12.10;;;6.53;;
46845;SDS011;33947;46.804;134.252;2022-12-04T17:45:05;15.90;;;6.45;;
46845;SDS011;33947;46.804;134.252;2022-12-04T17:48:11;19.92;;;7.88;;
46845;SDS011;33947;46.804;134.252;2022-12-04T17:51:17;23.70;;;6.45;;
46845;SDS011;33947;46.804;134.252;2022-12-04T17:54:24;6.32;;;5.47;;
46845;SDS011;33947;46.804;134.252;2022-12-04T17:57:29;39.50;;;14.18;;
46845;SDS011;33947;46.804;134.252;2022-12-04T18:03:37;30.95;;;9.80;;
46845;SDS011;33947;46.804;134.252;2022-12-04T18:06:45;35.13;;;15.77;;
46845;SDS011;33947;46.804;134.252;2022-12-04T18:09:51;32.05;;;13.65;;
46845;SDS011;33947;46.804;134.252;2022-12-04T18:12:55;10.93;;;6.43;;
46845;SDS011;33947;46.804;134.252;2022-12-04T18:16:03;28.63;;;12.05;;
46845;SDS011;33947;46.804;134.252;2022-12-04T18:19:09;14.10;;;5.28;;
46845;SDS011;33947;46.804;134.252;2022-12-04T18:22:15;11.73;;;4.85;;
46845;SDS011;33947;46.804;134.252;2022-12-04T18:25:19;51.75;;;13.90;;
46845;SDS011;33947;46.804;134.252;2022-12-04T18:28:25;22.27;;;8.82;;
46845;SDS011;33947;46.804;134.252;2022-12-04T18:31:32;35.13;;;14.00;;
46845;SDS011;33947;46.804;134.252;2022-12-04T18:34:37;40.88;;;17.25;;
46845;SDS011;33947;46.804;134.252;2022-12-04T18:37:42;6.30;;;5.68;;
46845;SDS011;33947;46.804;134.252;2022-12-04T18:40:48;54.72;;;20.15;;
46845;SDS011;33947;46.804;134.252;2022-12-04T18:43:53;31.92;;;14.98;;
46845;SDS011;33947;46.804;134.252;2022-12-04T18:46:58;46.50;;;18.77;;
46845;SDS011;33947;46.804;134.252;2022-12-04T18:50:02;64.93;;;23.33;;
46845;SDS011;33947;46.804;134.252;2022-12-04T18:53:07;47.85;;;17.80;;
46845;SDS011;33947;46.804;134.252;2022-12-04T18:56:14;48.90;;;16.80;;
46845;SDS011;33947;46.804;134.252;2022-12-04T18:59:21;40.17;;;11.40;;
46845;SDS011;33947;46.804;134.252;2022-12-04T19:02:29;25.75;;;13.55;;
46845;SDS011;33947;46.804;134.252;2022-12-04T19:05:33;63.53;;;20.30;;
46845;SDS011;33947;46.804;134.252;2022-12-04T19:08:38;19.05;;;9.75;;
46845;SDS011;33947;46.804;134.252;2022-12-04T19:11:45;46.45;;;20.33;;
46845;SDS011;33947;46.804;134.252;2022-12-04T19:14:51;30.85;;;12.73;;
46845;SDS011;33947;46.804;134.252;2022-12-04T19:17:55;22.38;;;10.43;;
46845;SDS011;33947;46.804;134.252;2022-12-04T19:21:00;57.00;;;21.58;;
46845;SDS011;33947;46.804;134.252;2022-12-04T19:24:08;36.33;;;13.38;;
46845;SDS011;33947;46.804;134.252;2022-12-04T19:27:13;29.20;;;13.82;;
46845;SDS011;33947;46.804;134.252;2022-12-04T19:30:19;29.85;;;12.27;;
46845;SDS011;33947;46.804;134.252;2022-12-04T19:33:23;4.65;;;4.25;;
46845;SDS011;33947;46.804;134.252;2022-12-04T19:39:33;10.05;;;8.32;;
46845;SDS011;33947;46.804;134.252;2022-12-04T19:42:37;18.70;;;13.70;;
46845;SDS011;33947;46.804;134.252;2022-12-04T19:45:50;10.05;;;6.53;;
46845;SDS011;33947;46.804;134.252;2022-12-04T19:48:57;39.95;;;15.15;;
46845;SDS011;33947;46.804;134.252;2022-12-04T19:52:04;12.80;;;8.63;;
46845;SDS011;33947;46.804;134.252;2022-12-04T19:55:08;34.22;;;14.52;;
46845;SDS011;33947;46.804;134.252;2022-12-04T19:58:13;17.98;;;7.70;;
46845;SDS011;33947;46.804;134.252;2022-12-04T20:01:18;25.08;;;13.38;;
46845;SDS011;33947;46.804;134.252;2022-12-04T20:04:26;43.17;;;14.95;;
46845;SDS011;33947;46.804;134.252;2022-12-04T20:07:31;25.48;;;7.50;;
46845;SDS011;33947;46.804;134.252;2022-12-04T20:10:35;44.92;;;14.27;;
46845;SDS011;33947;46.804;134.252;2022-12-04T20:13:40;219.27;;;78.75;;
46845;SDS011;33947;46.804;134.252;2022-12-04T20:16:46;147.98;;;58.97;;
46845;SDS011;33947;46.804;134.252;2022-12-04T20:19:51;73.15;;;26.30;;
46845;SDS011;33947;46.804;134.252;2022-12-04T20:22:56;129.38;;;44.85;;
46845;SDS011;33947;46.804;134.252;2022-12-04T20:26:04;47.08;;;27.25;;
46845;SDS011;33947;46.804;134.252;2022-12-04T20:29:12;98.10;;;33.05;;
46845;SDS011;33947;46.804;134.252;2022-12-04T20:32:17;37.92;;;21.67;;
46845;SDS011;33947;46.804;134.252;2022-12-04T20:38:26;41.03;;;17.55;;
46845;SDS011;33947;46.804;134.252;2022-12-04T20:41:30;22.85;;;13.88;;
46845;SDS011;33947;46.804;134.252;2022-12-04T20:44:35;41.28;;;16.35;;
46845;SDS011;33947;46.804;134.252;2022-12-04T20:50:44;27.23;;;12.00;;
46845;SDS011;33947;46.804;134.252;2022-12-04T20:53:48;33.25;;;13.20;;
46845;SDS011;33947;46.804;134.252;2022-12-04T20:56:54;38.55;;;15.68;;
46845;SDS011;33947;46.804;134.252;2022-12-04T20:59:59;66.85;;;22.35;;